Time;durP1;ratioP1;P1;durP2;ratioP2;P2;SDS_P1;SDS_P2;PMS_P1;PMS_P2;Temp;Humidity;BMP_temperature;BMP_pressure;BME280_temperature;BME280_humidity;BME280_pressure;Samples;Min_cycle;Max_cycle;Signal;HPM_P1;HPM_P2
2022/07/14 00:01:45;;;;;;;;;8.00;8.00;;;;;27.17;36.65;99557.84;4816753;29;45404;-56
2022/07/14 00:04:10;;;;;;;;;7.75;7.00;;;;;27.11;36.91;99563.91;4823540;29;45428;-56
2022/07/14 00:06:36;;;;;;;;;10.00;8.25;;;;;27.02;38.45;99568.38;4821088;29;45546;-56
2022/07/14 00:09:02;;;;;;;;;8.00;8.00;;;;;26.93;38.23;99566.59;4821424;29;45336;-56
2022/07/14 00:11:28;;;;;;;;;10.00;8.25;;;;;26.84;38.70;99562.09;4820190;29;45443;-56
2022/07/14 00:13:54;;;;;;;;;10.00;9.50;;;;;26.75;39.73;99565.72;4823417;29;45450;-56
2022/07/14 00:16:19;;;;;;;;;7.00;7.00;;;;;26.66;38.29;99561.22;4821145;29;46115;-55
2022/07/14 00:18:45;;;;;;;;;4.25;4.25;;;;;26.60;38.25;99567.28;4820915;29;45446;-54
2022/07/14 00:21:15;;;;;;;;;9.50;9.50;;;;;26.57;40.11;99564.84;4820611;29;45387;-55
2022/07/14 00:23:45;;;;;;;;;10.50;7.50;;;;;26.54;39.50;99570.56;4821411;29;45505;-55
2022/07/14 00:26:11;;;;;;;;;8.75;8.75;;;;;26.50;39.67;99572.72;4819206;29;47200;-56
2022/07/14 00:28:36;;;;;;;;;7.75;7.75;;;;;26.52;39.78;99564.47;4822480;29;45474;-56
2022/07/14 00:31:06;;;;;;;;;14.75;14.00;;;;;26.48;39.79;99572.00;4820192;29;45336;-56
2022/07/14 00:33:31;;;;;;;;;17.00;15.00;;;;;26.45;39.71;99566.09;4822498;29;45431;-56
2022/07/14 00:35:57;;;;;;;;;19.00;16.75;;;;;26.45;39.42;99568.78;4817912;29;46396;-56
2022/07/14 00:38:22;;;;;;;;;18.75;17.25;;;;;26.44;39.48;99570.63;4821664;29;45352;-56
2022/07/14 00:40:48;;;;;;;;;11.50;11.50;;;;;26.47;39.62;99574.91;4821676;29;45413;-55
2022/07/14 00:43:13;;;;;;;;;9.25;9.00;;;;;26.51;39.51;99570.88;4821635;29;45272;-54
2022/07/14 00:45:39;;;;;;;;;15.25;13.75;;;;;26.52;39.36;99573.41;4821079;29;46060;-54
2022/07/14 00:48:05;;;;;;;;;13.75;12.75;;;;;26.52;39.79;99577.97;4821447;29;45444;-56
2022/07/14 00:50:30;;;;;;;;;15.75;15.75;;;;;26.51;39.97;99576.28;4822629;29;45462;-56
2022/07/14 00:52:56;;;;;;;;;15.75;14.75;;;;;26.50;40.21;99575.41;4821619;29;45741;-56
2022/07/14 00:55:21;;;;;;;;;15.75;14.50;;;;;26.49;39.98;99580.97;4822608;29;46070;-56
2022/07/14 00:57:47;;;;;;;;;16.75;16.75;;;;;26.49;40.15;99575.56;4822762;29;45516;-55
2022/07/14 01:00:14;;;;;;;;;21.33;19.33;;;;;26.50;39.91;99570.00;4824007;29;45439;-56
2022/07/14 01:02:43;;;;;;;;;21.00;21.00;;;;;26.52;39.99;99567.16;4834928;29;45382;-55
2022/07/14 01:05:08;;;;;;;;;17.50;17.50;;;;;26.53;39.89;99558.03;4823295;29;45673;-55
2022/07/14 01:07:34;;;;;;;;;21.00;20.00;;;;;26.54;39.94;99559.75;4821620;29;45524;-56
2022/07/14 01:09:59;;;;;;;;;20.67;20.67;;;;;26.55;39.92;99569.56;4834324;29;45518;-55
2022/07/14 01:12:25;;;;;;;;;22.33;22.00;;;;;26.55;40.08;99564.16;4820236;29;45514;-56
2022/07/14 01:14:50;;;;;;;;;21.67;21.67;;;;;26.56;39.78;99564.00;4817820;29;45335;-56
2022/07/14 01:17:17;;;;;;;;;19.67;18.67;;;;;26.55;39.82;99562.31;4822120;29;45395;-55
2022/07/14 01:19:43;;;;;;;;;22.00;20.67;;;;;26.53;40.05;99558.03;4825615;29;45491;-55
2022/07/14 01:22:09;;;;;;;;;15.33;15.00;;;;;26.53;40.25;99556.19;4824728;29;45474;-56
2022/07/14 01:24:35;;;;;;;;;16.00;16.00;;;;;26.52;40.25;99557.19;4825420;29;45750;-56
2022/07/14 01:27:00;;;;;;;;;16.75;16.25;;;;;26.51;40.23;99555.50;4824181;29;45492;-55
2022/07/14 01:29:27;;;;;;;;;19.75;19.00;;;;;26.51;40.23;99551.94;4826290;29;45427;-56
2022/07/14 01:31:53;;;;;;;;;23.75;20.00;;;;;26.51;40.61;99557.34;4823023;29;45370;-56
2022/07/14 01:34:18;;;;;;;;;20.00;20.00;;;;;26.49;40.50;99559.34;4825497;29;46889;-56
2022/07/14 01:36:44;;;;;;;;;21.75;20.75;;;;;26.49;40.60;99553.94;4823661;29;45413;-56
2022/07/14 01:39:10;;;;;;;;;18.75;18.75;;;;;26.48;40.88;99549.56;4826309;29;45228;-55
2022/07/14 01:41:36;;;;;;;;;22.33;22.33;;;;;26.45;40.65;99545.31;4824018;29;45482;-56
2022/07/14 01:44:02;;;;;;;;;19.00;18.33;;;;;26.43;40.82;99541.91;4825911;29;46917;-55
2022/07/14 01:46:28;;;;;;;;;24.00;22.67;;;;;26.37;41.01;99542.50;4823342;29;45454;-55
2022/07/14 01:48:53;;;;;;;;;20.33;20.33;;;;;26.29;41.44;99551.38;4825415;29;45786;-56
2022/07/14 01:51:18;;;;;;;;;21.33;18.67;;;;;26.18;41.76;99545.28;4824132;29;45457;-57
2022/07/14 01:53:44;;;;;;;;;21.00;18.75;;;;;26.07;41.70;99544.47;4824870;29;46602;-54
2022/07/14 01:56:11;;;;;;;;;16.50;16.50;;;;;25.93;41.39;99547.69;4820738;29;45688;-54
2022/07/14 01:58:37;;;;;;;;;20.25;17.50;;;;;25.84;41.68;99550.41;4824010;29;45503;-55
2022/07/14 02:03:46;;;;;;;;;20.00;17.00;;;;;25.75;41.76;99554.84;4824935;29;45468;-55
2022/07/14 02:06:12;;;;;;;;;15.25;15.25;;;;;25.70;41.82;99549.88;4823399;29;45379;-55
2022/07/14 02:08:39;;;;;;;;;17.00;15.00;;;;;25.65;41.90;99546.75;4825438;29;45455;-56
2022/07/14 02:13:49;;;;;;;;;16.25;15.00;;;;;25.52;41.77;99553.44;4817975;29;45894;-55
2022/07/14 02:16:14;;;;;;;;;16.00;15.00;;;;;25.48;41.87;99547.47;4824853;29;45447;-54
2022/07/14 02:18:40;;;;;;;;;10.00;9.25;;;;;25.46;41.18;99556.75;4828430;29;45649;-56
2022/07/14 02:21:06;;;;;;;;;14.00;14.00;;;;;25.43;41.43;99548.94;4824285;29;45370;-55
2022/07/14 02:23:31;;;;;;;;;12.25;11.50;;;;;25.42;41.98;99549.94;4818495;29;45381;-56
2022/07/14 02:25:56;;;;;;;;;14.75;14.25;;;;;25.36;42.05;99549.50;4820717;29;45509;-56
2022/07/14 02:28:22;;;;;;;;;13.25;12.25;;;;;25.33;42.41;99541.69;4821574;29;45438;-56
2022/07/14 02:30:48;;;;;;;;;12.25;12.25;;;;;25.31;42.06;99557.19;4823976;29;45434;-55
2022/07/14 02:33:13;;;;;;;;;13.75;13.00;;;;;25.31;42.04;99549.09;4819746;29;46079;-56
2022/07/14 02:35:39;;;;;;;;;13.50;12.00;;;;;25.30;41.98;99550.06;4822252;29;45235;-54
2022/07/14 02:38:05;;;;;;;;;17.75;13.75;;;;;25.31;42.10;99554.47;4821344;29;45530;-56
2022/07/14 02:40:30;;;;;;;;;12.50;12.50;;;;;25.32;42.20;99555.34;4823812;29;45477;-56
2022/07/14 02:42:55;;;;;;;;;12.75;11.75;;;;;25.28;42.26;99552.09;4820345;29;46361;-56
2022/07/14 02:45:21;;;;;;;;;15.50;13.00;;;;;25.26;42.42;99556.78;4824563;29;45478;-56
2022/07/14 02:47:47;;;;;;;;;10.75;10.00;;;;;25.24;42.65;99552.53;4819990;29;45419;-56
2022/07/14 02:50:12;;;;;;;;;14.50;13.25;;;;;25.23;43.11;99556.22;4825596;29;45336;-55
2022/07/14 02:52:39;;;;;;;;;18.00;13.00;;;;;25.16;43.05;99555.91;4821321;29;45448;-56
2022/07/14 02:55:06;;;;;;;;;15.75;12.50;;;;;25.13;43.23;99553.53;4825146;29;45380;-55
2022/07/14 02:57:31;;;;;;;;;13.50;13.50;;;;;25.13;43.46;99556.25;4819748;29;45493;-55
2022/07/14 02:59:57;;;;;;;;;15.75;14.75;;;;;25.14;43.29;99562.44;4825336;29;45506;-56
2022/07/14 03:02:22;;;;;;;;;12.00;11.50;;;;;25.14;43.06;99559.75;4822993;29;45590;-55
2022/07/14 03:04:47;;;;;;;;;15.25;13.25;;;;;25.12;43.39;99559.06;4824953;29;45421;-74
2022/07/14 03:07:13;;;;;;;;;12.00;12.00;;;;;25.14;42.95;99559.75;4825116;29;45411;-75
2022/07/14 03:09:39;;;;;;;;;18.00;15.50;;;;;25.11;43.63;99562.75;4825111;29;45548;-75
2022/07/14 03:12:04;;;;;;;;;15.75;15.00;;;;;25.07;43.60;99555.94;4822936;29;46440;-75
2022/07/14 03:14:30;;;;;;;;;15.00;15.00;;;;;25.04;43.57;99565.16;4824750;29;45405;-75
2022/07/14 03:16:55;;;;;;;;;13.25;13.25;;;;;25.01;43.83;99566.31;4823511;29;45561;-74
2022/07/14 03:19:21;;;;;;;;;20.00;18.50;;;;;24.99;44.00;99570.13;4828644;29;45370;-75
2022/07/14 03:21:46;;;;;;;;;15.75;15.75;;;;;24.94;44.08;99569.72;4820590;29;46326;-75
2022/07/14 03:24:12;;;;;;;;;15.67;15.00;;;;;24.92;44.72;99566.28;4822852;29;45418;-75
2022/07/14 03:26:38;;;;;;;;;17.75;17.00;;;;;24.89;44.96;99564.72;4824772;29;45385;-75
2022/07/14 03:29:04;;;;;;;;;10.50;8.50;;;;;24.89;44.73;99569.25;4824627;29;45504;-74
2022/07/14 03:31:30;;;;;;;;;18.25;17.00;;;;;24.85;44.94;99560.59;4823898;29;46438;-75
2022/07/14 03:33:55;;;;;;;;;17.25;16.75;;;;;24.84;45.25;99566.13;4824627;29;45307;-75
2022/07/14 03:36:20;;;;;;;;;20.33;19.33;;;;;24.83;45.61;99569.81;4819319;29;46032;-75
2022/07/14 03:38:46;;;;;;;;;24.00;21.67;;;;;24.81;45.45;99567.25;4837674;29;45498;-75
2022/07/14 03:41:11;;;;;;;;;21.67;20.67;;;;;24.79;45.46;99571.09;4821144;29;45431;-75
2022/07/14 03:43:37;;;;;;;;;20.33;20.33;;;;;24.78;45.50;99583.75;4824164;29;45410;-75
2022/07/14 03:46:03;;;;;;;;;22.25;19.75;;;;;24.77;45.75;99573.94;4838144;29;45487;-75
2022/07/14 03:48:28;;;;;;;;;17.75;17.75;;;;;24.76;46.05;99571.38;4824381;29;45501;-75
2022/07/14 03:50:54;;;;;;;;;23.00;20.75;;;;;24.71;45.79;99569.09;4822577;29;46167;-75
2022/07/14 03:53:19;;;;;;;;;18.50;17.75;;;;;24.66;45.65;99568.66;4824491;29;45441;-74
2022/07/14 03:55:45;;;;;;;;;19.33;18.33;;;;;24.63;46.23;99572.47;4822476;29;45475;-75
2022/07/14 03:58:11;;;;;;;;;19.25;18.25;;;;;24.60;46.05;99562.00;4824111;29;45378;-75
2022/07/14 04:00:37;;;;;;;;;16.00;16.00;;;;;24.60;46.44;99566.53;4823242;29;45435;-75
2022/07/14 04:03:03;;;;;;;;;14.33;13.33;;;;;24.59;45.93;99563.00;4821198;29;45457;-75
2022/07/14 04:05:28;;;;;;;;;17.50;16.75;;;;;24.60;45.96;99567.41;4823497;29;45328;-75
2022/07/14 04:07:54;;;;;;;;;21.25;19.00;;;;;24.61;46.02;99568.25;4824010;29;45348;-75
2022/07/14 04:10:20;;;;;;;;;17.50;17.50;;;;;24.60;45.99;99571.94;4824334;29;46276;-75
2022/07/14 04:12:45;;;;;;;;;14.75;14.25;;;;;24.61;45.90;99566.41;4823805;29;45446;-75
2022/07/14 04:15:11;;;;;;;;;16.25;16.25;;;;;24.62;46.28;99561.88;4824410;29;45386;-74
2022/07/14 04:17:37;;;;;;;;;14.00;14.00;;;;;24.63;46.10;99568.97;4822798;29;45386;-75
2022/07/14 04:20:03;;;;;;;;;14.75;14.25;;;;;24.59;45.95;99564.84;4824165;29;45446;-75
2022/07/14 04:22:28;;;;;;;;;19.00;17.25;;;;;24.56;46.09;99562.41;4824043;29;45573;-75
2022/07/14 04:24:54;;;;;;;;;18.25;16.75;;;;;24.55;46.20;99566.09;4823516;29;45431;-75
2022/07/14 04:27:19;;;;;;;;;17.25;15.50;;;;;24.52;45.74;99574.47;4823071;29;45477;-75
2022/07/14 04:29:46;;;;;;;;;18.50;17.75;;;;;24.50;46.11;99568.34;4823725;29;46190;-75
2022/07/14 04:32:11;;;;;;;;;15.25;15.25;;;;;24.48;46.43;99571.19;4835211;29;45474;-75
2022/07/14 04:34:37;;;;;;;;;18.00;17.75;;;;;24.52;46.27;99574.47;4835027;29;45390;-75
2022/07/14 04:37:03;;;;;;;;;18.00;16.25;;;;;24.52;46.64;99572.63;4816388;29;45387;-75
2022/07/14 04:39:28;;;;;;;;;14.25;14.25;;;;;24.51;46.22;99573.59;4823644;29;46091;-74
2022/07/14 04:41:54;;;;;;;;;14.50;14.50;;;;;24.50;46.06;99571.91;4823063;29;45486;-74
2022/07/14 04:44:19;;;;;;;;;11.75;11.75;;;;;24.52;46.11;99563.66;4823985;29;45452;-74
2022/07/14 04:46:45;;;;;;;;;17.25;16.25;;;;;24.51;46.20;99572.75;4822654;29;45564;-75
2022/07/14 04:52:03;;;;;;;;;14.75;14.25;;;;;24.53;46.39;99568.94;4816136;29;45472;-76
2022/07/14 04:54:34;;;;;;;;;14.00;13.00;;;;;24.55;46.19;99576.88;4823921;29;45366;-75
2022/07/14 04:57:00;;;;;;;;;15.00;15.00;;;;;24.59;46.15;99583.72;4817637;29;45563;-75
2022/07/14 04:59:27;;;;;;;;;15.50;14.25;;;;;24.62;45.87;99580.75;4823245;29;45886;-75
2022/07/14 05:01:52;;;;;;;;;15.50;15.25;;;;;24.63;45.68;99577.88;4820532;29;45478;-75
2022/07/14 05:04:18;;;;;;;;;17.50;16.25;;;;;24.63;46.10;99585.13;4823565;29;45395;-75
2022/07/14 05:06:46;;;;;;;;;12.75;12.50;;;;;24.63;46.36;99587.84;4818214;29;45364;-76
2022/07/14 05:09:12;;;;;;;;;14.50;14.00;;;;;24.66;46.30;99574.91;4822225;29;47691;-75
2022/07/14 05:11:38;;;;;;;;;15.75;14.50;;;;;24.69;45.96;99576.47;4832206;29;45470;-75
2022/07/14 05:14:04;;;;;;;;;16.25;15.75;;;;;24.67;45.88;99579.31;4821564;29;45591;-75
2022/07/14 05:16:29;;;;;;;;;16.25;15.00;;;;;24.68;45.72;99583.72;4818651;29;45463;-75
2022/07/14 05:18:55;;;;;;;;;16.00;16.00;;;;;24.68;45.53;99583.72;4822998;29;46109;-75
2022/07/14 05:21:20;;;;;;;;;18.50;15.50;;;;;24.70;45.85;99587.13;4822759;29;45497;-75
2022/07/14 05:23:45;;;;;;;;;14.25;13.00;;;;;24.75;45.15;99594.81;4835746;29;45882;-75
2022/07/14 05:26:12;;;;;;;;;15.50;14.75;;;;;24.79;45.41;99584.59;4822523;29;45514;-75
2022/07/14 05:28:38;;;;;;;;;15.75;14.75;;;;;24.82;45.58;99581.59;4834087;29;47791;-75
2022/07/14 05:31:03;;;;;;;;;14.25;13.25;;;;;24.88;45.94;99584.59;4822461;29;45532;-75
2022/07/14 05:33:29;;;;;;;;;11.75;11.50;;;;;24.91;46.11;99581.63;4823285;29;45394;-75
2022/07/14 05:35:55;;;;;;;;;14.25;14.25;;;;;24.90;45.34;99579.06;4821063;29;45149;-75
2022/07/14 05:38:21;;;;;;;;;14.25;13.75;;;;;24.88;46.08;99591.81;4822945;29;45334;-75
2022/07/14 05:40:47;;;;;;;;;14.25;14.00;;;;;24.86;46.29;99591.97;4821958;29;45494;-75
2022/07/14 05:43:13;;;;;;;;;14.75;14.50;;;;;24.91;46.20;99591.56;4822811;29;45568;-75
2022/07/14 05:45:39;;;;;;;;;16.00;16.00;;;;;24.95;45.72;99591.16;4821961;29;45490;-75
2022/07/14 05:48:05;;;;;;;;;13.75;12.50;;;;;25.00;46.08;99591.56;4822286;29;46226;-75
2022/07/14 05:50:30;;;;;;;;;17.50;15.00;;;;;25.05;45.48;99593.84;4821488;29;45337;-75
2022/07/14 05:52:56;;;;;;;;;16.50;14.25;;;;;25.12;45.79;99589.59;4821729;29;45486;-75
2022/07/14 05:55:22;;;;;;;;;16.75;14.25;;;;;25.15;45.54;99591.16;4821277;29;45707;-75
2022/07/14 05:57:48;;;;;;;;;16.25;16.25;;;;;25.18;45.63;99588.16;4822253;29;46395;-75
2022/07/14 06:00:15;;;;;;;;;13.25;13.00;;;;;25.17;45.91;99589.16;4822595;29;45743;-75
2022/07/14 06:02:41;;;;;;;;;17.00;16.25;;;;;25.16;46.73;99593.69;4820151;29;45303;-75
2022/07/14 06:05:07;;;;;;;;;19.00;17.00;;;;;25.16;46.63;99591.00;4825265;29;45343;-75
2022/07/14 06:07:33;;;;;;;;;19.50;18.50;;;;;25.17;46.93;99598.09;4820841;29;46337;-75
2022/07/14 06:09:58;;;;;;;;;20.25;20.00;;;;;25.19;46.80;99590.72;4825282;29;45354;-75
2022/07/14 06:12:24;;;;;;;;;17.50;17.50;;;;;25.23;46.64;99591.31;4822639;29;45358;-75
2022/07/14 06:14:49;;;;;;;;;24.75;21.75;;;;;25.27;46.81;99598.97;4825324;29;45506;-75
2022/07/14 06:17:15;;;;;;;;;20.25;17.75;;;;;25.33;46.72;99594.81;4822445;29;47408;-75
2022/07/14 06:19:40;;;;;;;;;17.25;17.25;;;;;25.39;46.61;99591.56;4824083;29;45405;-75
2022/07/14 06:22:06;;;;;;;;;17.75;17.50;;;;;25.46;46.34;99595.41;4825502;29;45389;-75
2022/07/14 06:24:43;;;;;;;;;19.00;17.25;;;;;25.51;45.94;99586.84;4825870;29;45447;-75
2022/07/14 06:27:09;;;;;;;;;15.50;15.50;;;;;25.57;46.35;99588.97;4823457;29;46369;-75
2022/07/14 06:29:34;;;;;;;;;18.00;18.00;;;;;25.61;46.00;99590.41;4825063;29;45382;-75
2022/07/14 06:32:00;;;;;;;;;17.50;17.00;;;;;25.65;45.52;99581.88;4813557;29;45536;-75
2022/07/14 06:34:25;;;;;;;;;17.00;17.00;;;;;25.68;45.66;99588.84;4836468;29;45747;-75
2022/07/14 06:36:51;;;;;;;;;20.50;18.50;;;;;25.68;45.91;99580.72;4816135;29;45630;-75
2022/07/14 06:39:16;;;;;;;;;18.50;18.50;;;;;25.73;45.33;99581.16;4825193;29;45388;-75
2022/07/14 06:41:42;;;;;;;;;16.50;14.50;;;;;25.80;45.38;99586.84;4824881;29;45527;-75
2022/07/14 06:44:08;;;;;;;;;15.67;15.67;;;;;25.86;45.37;99584.38;4825015;29;45539;-75
2022/07/14 06:46:33;;;;;;;;;17.50;17.50;;;;;25.91;45.17;99579.38;4818760;29;45483;-75
2022/07/14 06:48:59;;;;;;;;;19.50;18.00;;;;;25.95;45.41;99580.81;4823613;29;45419;-75
2022/07/14 06:51:26;;;;;;;;;14.00;13.50;;;;;25.98;45.25;99579.63;4824850;29;45489;-75
2022/07/14 06:53:53;;;;;;;;;18.25;17.50;;;;;26.03;45.08;99580.91;4812963;29;45516;-75
2022/07/14 06:56:19;;;;;;;;;19.00;19.00;;;;;26.06;45.04;99579.75;4818303;29;45576;-74
2022/07/14 06:58:45;;;;;;;;;18.50;17.75;;;;;26.10;44.96;99574.91;4824764;29;45434;-73
2022/07/14 07:01:10;;;;;;;;;16.50;15.50;;;;;26.13;44.96;99582.72;4821146;29;45551;-77
2022/07/14 07:03:36;;;;;;;;;19.50;18.00;;;;;26.15;44.71;99576.16;4824806;29;45360;-74
2022/07/14 07:08:45;;;;;;;;;18.00;16.50;;;;;26.27;44.45;99577.66;4821362;29;45364;-76
2022/07/14 07:11:11;;;;;;;;;17.50;17.00;;;;;26.33;44.19;99577.09;4824580;29;45442;-76
2022/07/14 07:13:37;;;;;;;;;16.00;15.25;;;;;26.40;44.30;99580.06;4824355;29;45486;-76
2022/07/14 07:16:04;;;;;;;;;19.00;18.50;;;;;26.49;44.06;99572.88;4822628;29;45436;-77
2022/07/14 07:18:30;;;;;;;;;19.00;19.00;;;;;26.53;43.85;99567.00;4820602;29;45366;-76
2022/07/14 07:20:57;;;;;;;;;19.25;17.50;;;;;26.59;43.64;99563.72;4823086;29;45435;-77
2022/07/14 07:23:22;;;;;;;;;14.75;14.75;;;;;26.64;43.92;99564.09;4825028;29;45397;-76
2022/07/14 07:25:47;;;;;;;;;17.25;17.00;;;;;26.71;43.84;99564.34;4823872;29;46046;-76
2022/07/14 07:28:13;;;;;;;;;16.25;16.25;;;;;26.75;43.64;99558.47;4823144;29;45646;-57
2022/07/14 07:30:38;;;;;;;;;17.75;17.50;;;;;26.78;43.33;99554.59;4822540;29;45325;-56
2022/07/14 07:33:03;;;;;;;;;19.00;17.00;;;;;26.81;43.59;99548.03;4822514;29;45621;-56
2022/07/14 07:35:29;;;;;;;;;20.00;19.00;;;;;26.83;43.41;99554.97;4823588;29;47553;-57
2022/07/14 07:37:54;;;;;;;;;18.75;18.75;;;;;26.86;43.90;99559.22;4822815;29;45394;-56
2022/07/14 07:40:20;;;;;;;;;17.50;16.75;;;;;26.88;43.47;99544.56;4823583;29;45433;-57
2022/07/14 07:42:45;;;;;;;;;16.50;16.50;;;;;26.92;43.08;99551.34;4822114;29;45433;-56
2022/07/14 07:45:11;;;;;;;;;17.50;17.00;;;;;26.98;43.17;99545.34;4823589;29;45345;-56
2022/07/14 07:47:37;;;;;;;;;15.50;15.50;;;;;27.03;43.03;99542.16;4820055;29;45422;-56
2022/07/14 07:50:03;;;;;;;;;16.25;15.25;;;;;27.06;42.71;99541.88;4823903;29;45541;-57
2022/07/14 07:52:29;;;;;;;;;19.50;17.50;;;;;27.10;43.21;99533.28;4822119;29;45510;-56
2022/07/14 07:54:54;;;;;;;;;18.50;17.25;;;;;27.14;42.91;99527.56;4822760;29;46407;-55
2022/07/14 07:57:20;;;;;;;;;14.00;14.00;;;;;27.17;42.56;99538.06;4813257;29;45366;-56
2022/07/14 07:59:49;;;;;;;;;21.00;20.25;;;;;27.20;43.29;99535.88;4821412;29;45434;-56
2022/07/14 08:02:15;;;;;;;;;16.50;16.50;;;;;27.25;42.98;99532.72;4818840;29;45371;-56
2022/07/14 08:04:40;;;;;;;;;18.75;18.25;;;;;27.27;43.19;99531.56;4822558;29;45479;-56
2022/07/14 08:07:05;;;;;;;;;17.25;15.00;;;;;27.33;42.82;99530.91;4819983;29;45438;-56
2022/07/14 08:09:31;;;;;;;;;23.00;19.75;;;;;27.36;41.99;99529.75;4823092;29;45426;-55
2022/07/14 08:11:56;;;;;;;;;18.00;17.25;;;;;27.37;42.02;99518.75;4817927;29;45423;-56
2022/07/14 08:17:06;;;;;;;;;19.25;17.75;;;;;27.45;41.61;99515.25;4816883;29;45431;-56
2022/07/14 08:19:32;;;;;;;;;22.00;20.50;;;;;27.50;41.15;99512.06;4825499;29;45445;-56
2022/07/14 08:21:58;;;;;;;;;19.00;18.50;;;;;27.54;40.79;99508.88;4813418;29;45505;-55
2022/07/14 08:24:24;;;;;;;;;18.25;18.25;;;;;27.58;41.33;99515.72;4821388;29;45425;-58
2022/07/14 08:26:51;;;;;;;;;21.67;20.00;;;;;27.63;41.19;99512.53;4819114;29;45439;-58
2022/07/14 08:29:17;;;;;;;;;19.00;17.75;;;;;27.66;41.09;99507.63;4812464;29;45336;-58
2022/07/14 08:31:42;;;;;;;;;21.00;20.00;;;;;27.71;40.37;99508.00;4814674;29;45342;-57
2022/07/14 08:34:08;;;;;;;;;18.75;17.25;;;;;27.76;39.92;99504.81;4822641;29;45590;-57
2022/07/14 08:36:33;;;;;;;;;21.25;19.75;;;;;27.81;40.18;99505.19;4821037;29;45574;-57
2022/07/14 08:39:01;;;;;;;;;16.25;15.25;;;;;27.87;39.80;99499.09;4822516;29;45411;-57
2022/07/14 08:41:27;;;;;;;;;18.25;18.25;;;;;27.93;39.76;99495.75;4818977;29;45467;-57
2022/07/14 08:43:52;;;;;;;;;18.75;15.75;;;;;28.00;40.04;99494.06;4822046;29;46314;-57
2022/07/14 08:46:19;;;;;;;;;17.00;16.25;;;;;28.05;39.54;99491.72;4818171;29;45503;-57
2022/07/14 08:48:48;;;;;;;;;18.50;16.75;;;;;28.13;39.43;99497.19;4835254;29;45542;-58
2022/07/14 08:51:14;;;;;;;;;19.50;18.50;;;;;28.18;39.50;99491.25;4821621;29;45450;-57
2022/07/14 08:53:42;;;;;;;;;17.75;15.75;;;;;28.24;39.91;99493.34;4821920;29;47179;-58
2022/07/14 08:56:08;;;;;;;;;18.75;17.50;;;;;28.30;39.71;99489.13;4820962;29;45393;-58
2022/07/14 08:58:34;;;;;;;;;17.75;16.50;;;;;28.36;39.18;99486.59;4822734;29;45465;-58
2022/07/14 09:00:59;;;;;;;;;18.00;15.50;;;;;28.43;39.38;99482.22;4848546;29;46050;-57
2022/07/14 09:03:25;;;;;;;;;17.00;15.50;;;;;28.49;38.93;99476.09;4820929;29;46430;-58
2022/07/14 09:05:51;;;;;;;;;18.75;17.00;;;;;28.58;39.19;99482.41;4818990;29;45506;-58
2022/07/14 09:08:19;;;;;;;;;17.75;17.75;;;;;28.66;38.96;99474.25;4821339;29;45412;-57
2022/07/14 09:10:46;;;;;;;;;21.00;20.75;;;;;28.74;38.09;99471.56;4820932;29;45578;-58
2022/07/14 09:13:17;;;;;;;;;15.25;15.25;;;;;28.80;38.02;99473.63;4822523;29;46225;-58
2022/07/14 09:15:46;;;;;;;;;17.50;16.25;;;;;28.88;37.87;99472.78;4820504;29;45581;-58
2022/07/14 09:18:26;;;;;;;;;16.25;16.00;;;;;28.94;38.16;99466.69;4822034;29;45403;-58
2022/07/14 09:20:54;;;;;;;;;17.75;16.25;;;;;29.01;37.99;99458.69;4820915;29;45473;-58
2022/07/14 09:23:27;;;;;;;;;12.75;12.75;;;;;29.07;37.42;99455.28;4818243;29;45502;-58
2022/07/14 09:26:15;;;;;;;;;15.00;13.75;;;;;29.12;37.59;99458.34;4819503;29;45312;-58
2022/07/14 09:28:42;;;;;;;;;13.25;12.00;;;;;29.19;36.89;99456.63;4820077;29;45316;-58
2022/07/14 09:31:25;;;;;;;;;15.00;14.00;;;;;29.29;37.39;99451.03;4818185;29;45513;-58
2022/07/14 09:33:55;;;;;;;;;17.75;15.25;;;;;29.36;36.52;99446.56;4819812;29;45390;-57
2022/07/14 09:36:26;;;;;;;;;18.75;12.25;;;;;29.45;37.08;99445.56;4815162;29;45526;-58
2022/07/14 09:38:52;;;;;;;;;16.75;15.25;;;;;29.50;36.94;99443.16;4824911;29;45499;-57
2022/07/14 09:41:18;;;;;;;;;13.75;13.75;;;;;29.54;36.29;99440.94;4822725;29;45464;-58
2022/07/14 09:44:06;;;;;;;;;13.25;12.75;;;;;29.61;36.73;99444.69;4825008;29;46229;-56
2022/07/14 09:46:53;;;;;;;;;14.50;13.50;;;;;29.67;36.61;99441.25;4820988;29;45476;-58
2022/07/14 09:49:21;;;;;;;;;14.00;14.00;;;;;29.75;36.38;99442.06;4820308;29;45498;-58
2022/07/14 09:51:56;;;;;;;;;12.00;12.00;;;;;29.81;36.16;99426.94;4824948;29;45328;-58
2022/07/14 09:54:40;;;;;;;;;16.50;16.50;;;;;29.88;36.08;99430.63;4821787;29;46211;-58
2022/07/14 09:57:19;;;;;;;;;15.75;13.75;;;;;29.93;36.45;99422.78;4821764;29;45430;-58
2022/07/14 09:59:50;;;;;;;;;11.50;11.25;;;;;29.98;35.53;99422.28;4823293;29;45590;-58
2022/07/14 10:02:30;;;;;;;;;13.50;11.50;;;;;30.06;35.92;99420.38;4821477;29;45448;-58
2022/07/14 10:05:02;;;;;;;;;12.25;12.25;;;;;30.10;35.44;99413.53;4854501;29;45663;-58
2022/07/14 10:07:31;;;;;;;;;11.50;11.50;;;;;30.14;35.70;99419.47;4822094;29;45452;-58
2022/07/14 10:10:10;;;;;;;;;13.75;13.75;;;;;30.17;34.82;99409.06;4824283;29;45418;-56
2022/07/14 10:12:37;;;;;;;;;13.00;12.00;;;;;30.24;34.91;99408.34;4823189;29;45607;-57
2022/07/14 10:15:08;;;;;;;;;10.25;10.25;;;;;30.31;34.67;99404.75;4824057;29;45435;-55
2022/07/14 10:17:36;;;;;;;;;12.00;12.00;;;;;30.40;34.60;99400.06;4822730;29;45504;-57
2022/07/14 10:20:04;;;;;;;;;13.00;13.00;;;;;30.48;33.50;99390.00;4818640;29;45389;-56
2022/07/14 10:22:30;;;;;;;;;10.75;10.75;;;;;30.56;33.67;99396.41;4822924;29;45532;-56
2022/07/14 10:24:56;;;;;;;;;12.25;10.50;;;;;30.65;33.53;99390.75;4824148;29;46676;-56
2022/07/14 10:27:22;;;;;;;;;10.50;10.25;;;;;30.74;33.75;99392.34;4819545;29;45486;-56
2022/07/14 10:29:52;;;;;;;;;13.75;13.75;;;;;30.83;33.71;99379.53;4824178;29;45427;-56
2022/07/14 10:32:26;;;;;;;;;14.25;13.25;;;;;30.90;33.54;99380.44;4822507;29;45577;-56
2022/07/14 10:34:55;;;;;;;;;11.75;10.00;;;;;30.99;32.95;99373.91;4822108;29;46746;-56
2022/07/14 10:37:54;;;;;;;;;10.75;10.75;;;;;31.10;32.46;99370.75;4814801;29;45470;-57
2022/07/14 10:41:07;;;;;;;;;12.00;11.00;;;;;31.23;32.54;99367.38;4819355;29;45239;-58
2022/07/14 10:44:19;;;;;;;;;14.00;14.00;;;;;31.35;32.27;99363.13;4792289;29;45591;-58
2022/07/14 10:46:46;;;;;;;;;16.25;14.25;;;;;31.46;32.77;99357.22;4818639;29;45577;-58
2022/07/14 10:49:14;;;;;;;;;13.75;13.50;;;;;31.53;32.52;99360.84;4823807;29;45456;-57
2022/07/14 10:51:48;;;;;;;;;16.33;14.33;;;;;31.59;32.36;99356.53;4823749;29;45265;-58
2022/07/14 10:54:25;;;;;;;;;10.00;10.00;;;;;31.68;30.72;99362.75;4824483;29;45514;-58
2022/07/14 10:57:17;;;;;;;;;12.25;11.50;;;;;31.74;31.06;99353.81;4818633;29;45732;-57
2022/07/14 10:59:47;;;;;;;;;10.00;10.00;;;;;31.82;30.56;99361.91;4821467;29;45434;-58
2022/07/14 11:02:15;;;;;;;;;8.75;8.75;;;;;31.88;29.74;99348.31;4819921;29;45530;-58
2022/07/14 11:05:02;;;;;;;;;11.25;11.25;;;;;31.94;30.04;99343.97;4823395;29;45600;-57
2022/07/14 11:07:35;;;;;;;;;8.50;7.25;;;;;32.00;29.91;99340.50;4821178;29;45417;-57
2022/07/14 11:10:04;;;;;;;;;13.00;11.25;;;;;32.10;30.60;99345.63;4822943;29;45474;-55
2022/07/14 11:12:30;;;;;;;;;12.50;12.00;;;;;32.16;30.51;99344.84;4820166;29;45516;-56
2022/07/14 11:14:55;;;;;;;;;10.25;10.25;;;;;32.22;30.06;99344.09;4822804;29;45391;-56
2022/07/14 11:17:33;;;;;;;;;12.00;12.00;;;;;32.27;30.42;99341.63;4821852;29;45431;-56
2022/07/14 11:19:58;;;;;;;;;12.75;12.75;;;;;32.34;31.02;99334.34;4818159;29;45547;-56
2022/07/14 11:22:25;;;;;;;;;12.00;10.25;;;;;32.42;31.04;99330.63;4822016;29;45473;-54
2022/07/14 11:24:56;;;;;;;;;13.50;13.00;;;;;32.48;30.31;99335.31;4823367;29;45407;-56
2022/07/14 11:27:27;;;;;;;;;12.25;12.25;;;;;32.54;30.58;99329.06;4819575;29;46222;-56
2022/07/14 11:29:56;;;;;;;;;13.50;12.00;;;;;32.59;30.27;99318.38;4821389;29;45436;-55
2022/07/14 11:32:34;;;;;;;;;8.75;8.00;;;;;32.67;30.43;99317.41;4821413;29;45346;-56